Time;durP1;ratioP1;P1;durP2;ratioP2;P2;SDS_P1;SDS_P2;PMS_P1;PMS_P2;Temp;Humidity;BMP_temperature;BMP_pressure;BME280_temperature;BME280_humidity;BME280_pressure;Samples;Min_cycle;Max_cycle;Signal;HPM_P1;HPM_P2
2022/06/19 00:00:42;;;;;;;7.28;3.17;;;22.10;74.00;;;;;;5053001;28;20460;-36
2022/06/19 00:03:15;;;;;;;4.43;2.50;;;22.10;74.00;;;;;;5051862;28;20035;-37
2022/06/19 00:05:41;;;;;;;4.38;2.67;;;22.10;73.90;;;;;;5053165;28;20447;-37
2022/06/19 00:08:07;;;;;;;5.35;2.72;;;22.10;74.10;;;;;;5053025;28;20032;-37
2022/06/19 00:10:33;;;;;;;6.22;2.70;;;22.00;74.10;;;;;;5052908;28;20121;-38
2022/06/19 00:12:59;;;;;;;5.28;2.80;;;21.90;74.10;;;;;;5052870;28;20489;-42
2022/06/19 00:15:24;;;;;;;7.90;2.75;;;21.80;74.30;;;;;;5053573;28;20096;-37
2022/06/19 00:17:50;;;;;;;4.85;3.38;;;21.80;74.20;;;;;;5052880;28;20021;-37
2022/06/19 00:20:16;;;;;;;3.13;2.55;;;21.80;74.00;;;;;;5052861;28;20071;-37
2022/06/19 00:22:41;;;;;;;3.30;2.45;;;21.60;74.20;;;;;;5051565;28;20100;-37
2022/06/19 00:25:08;;;;;;;4.20;2.58;;;21.60;74.50;;;;;;5052823;28;20025;-37
2022/06/19 00:27:38;;;;;;;7.10;2.63;;;21.50;74.60;;;;;;5053302;28;20033;-36
2022/06/19 00:30:09;;;;;;;3.65;2.63;;;21.40;74.80;;;;;;5054097;28;20025;-37
2022/06/19 00:32:35;;;;;;;5.40;3.15;;;21.50;74.60;;;;;;5052990;28;20025;-36
2022/06/19 00:35:00;;;;;;;5.32;2.80;;;21.40;74.60;;;;;;5052719;28;20021;-37
2022/06/19 00:37:27;;;;;;;5.30;3.17;;;21.30;74.90;;;;;;5052742;28;20098;-37
2022/06/19 00:39:53;;;;;;;8.38;4.78;;;21.30;75.00;;;;;;5052933;28;20013;-37
2022/06/19 00:42:18;;;;;;;3.50;2.78;;;21.30;75.10;;;;;;5053281;28;20341;-38
2022/06/19 00:44:44;;;;;;;4.68;2.67;;;21.20;75.50;;;;;;5052789;28;20046;-37
2022/06/19 00:47:17;;;;;;;5.15;2.50;;;21.10;75.60;;;;;;5052957;28;20039;-36
2022/06/19 00:49:58;;;;;;;5.93;3.75;;;21.10;75.70;;;;;;5052571;28;20044;-36
2022/06/19 00:52:28;;;;;;;4.22;2.63;;;20.90;75.70;;;;;;5052573;28;20519;-36
2022/06/19 00:54:58;;;;;;;2.72;2.42;;;21.00;75.80;;;;;;5052524;28;20469;-36
2022/06/19 00:57:26;;;;;;;3.05;2.00;;;20.90;75.70;;;;;;5053042;28;20070;-37
2022/06/19 01:00:05;;;;;;;7.65;2.28;;;20.90;75.70;;;;;;5052811;28;20156;-37
2022/06/19 01:02:31;;;;;;;4.13;2.90;;;20.90;75.50;;;;;;5056868;28;20036;-38
2022/06/19 01:04:57;;;;;;;9.43;2.85;;;20.80;75.60;;;;;;5054882;28;20025;-37
2022/06/19 01:07:26;;;;;;;5.72;2.58;;;20.80;75.40;;;;;;5056266;28;20085;-37
2022/06/19 01:09:52;;;;;;;5.38;2.50;;;20.70;75.30;;;;;;5054737;28;20044;-46
2022/06/19 01:12:20;;;;;;;7.55;2.60;;;20.70;75.30;;;;;;5056393;28;20465;-37
2022/06/19 01:14:47;;;;;;;3.08;2.17;;;20.60;75.30;;;;;;5055759;28;20037;-37
2022/06/19 01:17:15;;;;;;;5.95;2.15;;;20.60;75.40;;;;;;5056078;28;20021;-38
2022/06/19 01:19:43;;;;;;;8.20;2.10;;;20.60;75.30;;;;;;5056098;28;20394;-36
2022/06/19 01:22:56;;;;;;;3.60;2.35;;;20.80;74.80;;;;;;5054611;28;20028;-38
2022/06/19 01:25:30;;;;;;;4.13;2.28;;;20.50;75.00;;;;;;5054484;28;20083;-36
2022/06/19 01:30:48;;;;;;;5.45;2.53;;;20.60;75.00;;;;;;5056211;28;20530;-36
2022/06/19 01:33:19;;;;;;;4.90;2.47;;;20.50;75.10;;;;;;5055518;28;20028;-35
2022/06/19 01:35:48;;;;;;;6.65;2.25;;;20.40;75.30;;;;;;5055652;28;20074;-37
2022/06/19 01:38:18;;;;;;;10.60;2.47;;;20.40;75.40;;;;;;5054701;28;20021;-36
2022/06/19 01:40:51;;;;;;;5.18;2.72;;;20.40;75.30;;;;;;5055704;28;20067;-36
2022/06/19 01:43:17;;;;;;;3.80;2.55;;;20.40;75.20;;;;;;5055768;28;20435;-35
2022/06/19 01:45:48;;;;;;;7.03;2.63;;;20.30;75.50;;;;;;5055598;28;20534;-36
2022/06/19 01:48:15;;;;;;;5.40;2.45;;;20.30;75.50;;;;;;5055894;28;20033;-36
2022/06/19 01:50:42;;;;;;;6.25;2.50;;;20.20;76.00;;;;;;5055405;28;20476;-36
2022/06/19 01:53:15;;;;;;;4.60;3.17;;;20.10;76.20;;;;;;5054194;28;20529;-38
2022/06/19 01:55:41;;;;;;;3.22;2.33;;;20.00;76.40;;;;;;5055614;28;20036;-37
2022/06/19 01:58:08;;;;;;;3.53;2.28;;;20.00;76.40;;;;;;5055371;28;20029;-38
2022/06/19 02:00:36;;;;;;;5.95;2.15;;;19.90;76.60;;;;;;5055538;28;20047;-37
2022/06/19 02:03:10;;;;;;;4.97;2.65;;;19.90;76.60;;;;;;5055218;28;20025;-38
2022/06/19 02:05:38;;;;;;;8.90;3.00;;;19.80;76.60;;;;;;5053847;28;20533;-38
2022/06/19 02:08:04;;;;;;;3.33;2.17;;;19.70;76.90;;;;;;5055280;28;20060;-37
2022/06/19 02:10:31;;;;;;;3.55;1.85;;;19.60;76.90;;;;;;5055064;28;20471;-37
2022/06/19 02:12:58;;;;;;;4.45;2.35;;;19.60;76.90;;;;;;5054479;28;20020;-37
2022/06/19 02:15:25;;;;;;;6.57;2.25;;;19.60;76.80;;;;;;5055542;28;20033;-37
2022/06/19 02:17:53;;;;;;;4.32;3.17;;;19.60;77.00;;;;;;5055094;28;20021;-37
2022/06/19 02:20:20;;;;;;;6.05;2.05;;;19.50;77.00;;;;;;5055187;28;20108;-37
2022/06/19 02:22:46;;;;;;;4.70;2.58;;;19.30;77.20;;;;;;5054917;28;20087;-37
2022/06/19 02:25:13;;;;;;;4.03;2.65;;;19.30;77.30;;;;;;5054785;28;20072;-37
2022/06/19 02:27:40;;;;;;;3.58;2.42;;;19.30;77.40;;;;;;5053626;28;20557;-37
2022/06/19 02:30:09;;;;;;;2.63;1.90;;;19.20;77.40;;;;;;5054732;28;20044;-37
2022/06/19 02:32:40;;;;;;;5.82;2.22;;;19.10;77.40;;;;;;5054691;28;20052;-37
2022/06/19 02:35:10;;;;;;;3.92;2.22;;;18.90;77.20;;;;;;5054702;28;20033;-37
2022/06/19 02:37:41;;;;;;;4.03;1.95;;;18.90;77.30;;;;;;5054869;28;20484;-37
2022/06/19 02:40:38;;;;;;;3.35;2.03;;;18.80;77.10;;;;;;5054698;28;20032;-45
2022/06/19 02:43:16;;;;;;;7.95;2.38;;;18.80;77.20;;;;;;5054711;28;20033;-37
2022/06/19 02:45:42;;;;;;;4.15;2.28;;;18.80;77.10;;;;;;5054716;28;20031;-37
2022/06/19 02:48:24;;;;;;;3.78;1.88;;;18.70;77.10;;;;;;5054210;28;20104;-37
2022/06/19 02:50:51;;;;;;;8.25;1.75;;;18.70;77.10;;;;;;5054289;28;20025;-37
2022/06/19 02:53:17;;;;;;;4.18;1.80;;;18.80;76.90;;;;;;5054114;28;20025;-37
2022/06/19 20:17:31;;;;;;;7.20;3.90;;;15.40;83.80;;;;;;5091286;27;20382;-50
2022/06/19 20:19:59;;;;;;;14.13;5.50;;;15.50;84.10;;;;;;5089179;28;20058;-51
2022/06/19 20:22:31;;;;;;;7.97;4.22;;;15.60;83.60;;;;;;5090743;28;20110;-48
2022/06/19 20:25:12;;;;;;;7.00;3.80;;;15.70;83.50;;;;;;5091042;28;20024;-49
2022/06/19 20:27:47;;;;;;;10.38;4.20;;;15.70;83.30;;;;;;5090799;28;20028;-49
2022/06/19 20:30:18;;;;;;;9.05;4.22;;;15.70;83.10;;;;;;5090863;28;20099;-50
2022/06/19 20:32:50;;;;;;;6.45;4.18;;;15.80;83.00;;;;;;5091153;28;20371;-53
2022/06/19 20:35:29;;;;;;;9.05;3.92;;;15.80;82.70;;;;;;5090509;28;20353;-53
2022/06/19 20:38:15;;;;;;;8.32;3.75;;;15.80;82.90;;;;;;5090477;28;20341;-51
2022/06/19 20:40:41;;;;;;;9.32;3.90;;;15.80;82.60;;;;;;5090733;28;20021;-50
2022/06/19 20:43:11;;;;;;;7.55;4.20;;;15.80;82.70;;;;;;5090672;28;20050;-48
2022/06/19 20:45:37;;;;;;;5.18;3.63;;;15.90;82.20;;;;;;5090100;28;20547;-51
2022/06/19 20:48:07;;;;;;;6.22;3.75;;;15.90;82.20;;;;;;5090322;28;20139;-50
2022/06/19 20:50:42;;;;;;;7.13;3.22;;;15.80;82.20;;;;;;5090244;28;20029;-50
2022/06/19 20:53:17;;;;;;;8.30;3.60;;;15.80;82.30;;;;;;5090235;28;20077;-53
2022/06/19 20:55:44;;;;;;;4.20;3.78;;;15.80;82.10;;;;;;5090495;28;20468;-49
2022/06/19 20:58:12;;;;;;;7.28;3.20;;;15.80;82.00;;;;;;5089964;28;20123;-52
2022/06/19 21:00:40;;;;;;;9.32;3.38;;;15.70;82.10;;;;;;5090682;28;20333;-50
2022/06/19 21:03:06;;;;;;;7.50;3.40;;;15.60;82.40;;;;;;5090669;28;20056;-50
2022/06/19 21:05:35;;;;;;;8.85;2.92;;;15.50;82.70;;;;;;5090448;28;20024;-50
2022/06/19 21:08:03;;;;;;;8.00;3.20;;;15.50;82.70;;;;;;5089666;28;20151;-50
2022/06/19 21:10:28;;;;;;;4.88;4.15;;;15.40;82.60;;;;;;5089739;28;20469;-50
2022/06/19 21:12:54;;;;;;;3.75;2.65;;;15.30;83.00;;;;;;5088521;28;20056;-38
2022/06/19 21:15:21;;;;;;;9.40;3.95;;;15.30;82.80;;;;;;5089631;28;20028;-38
2022/06/19 21:17:47;;;;;;;6.03;3.10;;;15.40;82.90;;;;;;5089827;28;20032;-38
2022/06/19 21:20:13;;;;;;;5.88;2.47;;;15.40;82.70;;;;;;5089628;28;20028;-38
2022/06/19 21:22:51;;;;;;;5.30;2.60;;;15.60;82.20;;;;;;5089703;28;20104;-37
2022/06/19 21:25:38;;;;;;;7.80;2.90;;;15.70;81.60;;;;;;5089762;28;20055;-38
2022/06/19 21:28:07;;;;;;;6.45;2.70;;;15.60;81.50;;;;;;5080684;28;20031;-38
2022/06/19 21:30:33;;;;;;;3.90;2.35;;;15.60;81.60;;;;;;5075104;28;20060;-37
2022/06/19 21:32:59;;;;;;;5.47;2.90;;;15.50;81.50;;;;;;5074731;28;20052;-38
2022/06/19 21:35:25;;;;;;;5.95;2.80;;;15.60;81.70;;;;;;5076182;28;20021;-38
2022/06/19 21:37:57;;;;;;;7.05;3.25;;;15.70;81.30;;;;;;5076292;28;20024;-39
2022/06/19 21:40:26;;;;;;;4.30;2.83;;;15.70;81.00;;;;;;5076245;28;20328;-38
2022/06/19 21:42:52;;;;;;;3.92;2.33;;;15.70;81.00;;;;;;5076133;28;20028;-39
2022/06/19 21:45:24;;;;;;;6.10;3.72;;;15.60;81.10;;;;;;5075741;28;20020;-38
2022/06/19 21:47:50;;;;;;;4.85;2.47;;;15.40;81.60;;;;;;5075752;28;20039;-38
2022/06/19 21:50:18;;;;;;;6.07;2.10;;;15.50;81.80;;;;;;5076022;28;20028;-38
2022/06/19 21:52:46;;;;;;;4.28;2.22;;;15.50;81.40;;;;;;5076059;28;20054;-37
2022/06/19 21:55:16;;;;;;;5.15;2.33;;;15.40;81.90;;;;;;5075673;28;20020;-38
2022/06/19 21:57:43;;;;;;;3.35;2.05;;;15.50;81.50;;;;;;5076078;28;20020;-37
2022/06/19 22:00:27;;;;;;;6.38;3.67;;;15.60;81.20;;;;;;5074235;28;20025;-39
2022/06/19 22:02:53;;;;;;;4.78;2.72;;;15.60;80.80;;;;;;5074904;28;20476;-39
2022/06/19 22:05:18;;;;;;;6.80;2.00;;;15.40;80.30;;;;;;5075982;28;20121;-39
2022/06/19 22:07:46;;;;;;;4.30;1.95;;;15.50;80.30;;;;;;5075356;28;20104;-38
2022/06/19 22:13:07;;;;;;;2.25;2.00;;;15.30;80.00;;;;;;5075983;28;20586;-37
2022/06/19 22:15:33;;;;;;;3.45;1.80;;;15.40;79.80;;;;;;5075183;28;20507;-37
2022/06/19 22:17:59;;;;;;;7.45;2.63;;;15.20;80.70;;;;;;5057412;28;20459;-38
2022/06/19 22:20:26;;;;;;;5.38;2.20;;;15.30;81.30;;;;;;5075977;28;20115;-39
2022/06/19 22:22:55;;;;;;;4.72;2.15;;;15.20;81.30;;;;;;5075669;28;20408;-38
2022/06/19 22:25:22;;;;;;;6.47;3.33;;;15.20;80.90;;;;;;5057526;28;20476;-39
2022/06/19 22:27:48;;;;;;;4.05;1.98;;;15.20;81.00;;;;;;5075545;28;20035;-39
2022/06/19 22:30:27;;;;;;;4.57;2.03;;;15.20;81.20;;;;;;5075267;28;20115;-38
2022/06/19 22:32:54;;;;;;;4.90;2.42;;;15.30;81.10;;;;;;5073825;28;20185;-38
2022/06/19 22:35:20;;;;;;;6.75;3.35;;;15.30;81.00;;;;;;5075312;28;20103;-38
2022/06/19 22:37:46;;;;;;;3.90;2.15;;;15.10;81.60;;;;;;5075099;28;20494;-37
2022/06/19 22:40:15;;;;;;;5.65;2.63;;;15.10;82.30;;;;;;5074522;28;20020;-37
2022/06/19 22:42:42;;;;;;;2.20;1.95;;;15.10;82.30;;;;;;5075205;28;20055;-37
2022/06/19 22:45:35;;;;;;;3.38;2.10;;;15.10;82.20;;;;;;5074995;28;20065;-38
2022/06/19 22:48:01;;;;;;;4.90;2.28;;;15.00;82.10;;;;;;5074126;28;20045;-37
2022/06/19 22:50:29;;;;;;;2.60;2.10;;;15.00;82.10;;;;;;5074624;28;20021;-38
2022/06/19 22:52:56;;;;;;;6.40;2.30;;;15.10;82.20;;;;;;5074855;28;20024;-38
2022/06/19 22:55:23;;;;;;;8.77;2.80;;;15.10;82.20;;;;;;5074594;28;20035;-38
2022/06/19 22:57:55;;;;;;;6.38;2.53;;;15.00;81.60;;;;;;5074965;28;20528;-37
2022/06/19 23:03:13;;;;;;;5.97;2.53;;;15.00;81.70;;;;;;5073938;28;20051;-38
2022/06/19 23:05:40;;;;;;;4.82;2.30;;;14.90;82.20;;;;;;5074870;28;20051;-37
2022/06/19 23:08:12;;;;;;;4.50;2.72;;;14.80;82.40;;;;;;5074308;28;20081;-38
2022/06/19 23:10:38;;;;;;;8.00;2.80;;;14.80;82.30;;;;;;5074213;28;20495;-37
2022/06/19 23:13:04;;;;;;;6.50;2.20;;;14.80;82.40;;;;;;5074365;28;20124;-38
2022/06/19 23:15:31;;;;;;;5.55;2.78;;;14.80;82.20;;;;;;5073819;28;20492;-38
2022/06/19 23:17:57;;;;;;;5.00;2.75;;;14.80;82.60;;;;;;5074335;28;20063;-37
2022/06/19 23:20:31;;;;;;;5.63;2.85;;;14.80;82.90;;;;;;5074828;28;20071;-37
2022/06/19 23:22:58;;;;;;;4.63;2.17;;;14.80;83.00;;;;;;5073086;28;20095;-37
2022/06/19 23:25:24;;;;;;;3.50;2.50;;;14.80;83.30;;;;;;5073564;28;20031;-45
2022/06/19 23:27:50;;;;;;;4.95;2.80;;;14.70;83.40;;;;;;5075029;28;20024;-39
2022/06/19 23:30:18;;;;;;;6.03;2.85;;;14.80;83.60;;;;;;5074106;28;20028;-37
2022/06/19 23:32:45;;;;;;;9.70;2.80;;;14.70;83.80;;;;;;5074426;28;20495;-38
2022/06/19 23:35:10;;;;;;;4.28;2.58;;;14.50;84.00;;;;;;5074187;28;20032;-38
2022/06/19 23:37:37;;;;;;;6.10;2.60;;;14.50;84.10;;;;;;5075152;28;20342;-38
2022/06/19 23:40:04;;;;;;;9.35;2.72;;;14.60;83.90;;;;;;5073913;28;20035;-37
2022/06/19 23:42:31;;;;;;;3.65;2.40;;;14.80;82.90;;;;;;5073085;28;20027;-38
2022/06/19 23:45:03;;;;;;;4.75;2.28;;;14.80;82.10;;;;;;5074521;28;20437;-38
2022/06/19 23:47:30;;;;;;;9.45;3.22;;;15.00;81.50;;;;;;5072987;28;20024;-38
2022/06/19 23:49:56;;;;;;;7.03;2.45;;;14.90;80.90;;;;;;5074415;28;20028;-36
2022/06/19 23:52:23;;;;;;;6.68;2.90;;;14.90;80.80;;;;;;5074980;28;20100;-38
2022/06/19 23:54:49;;;;;;;4.28;1.65;;;15.00;81.10;;;;;;5073833;28;20029;-38
2022/06/19 23:57:15;;;;;;;7.07;3.35;;;15.00;80.40;;;;;;5073956;28;20052;-37
2022/06/19 23:59:42;;;;;;;3.70;1.98;;;14.90;79.80;;;;;;5072839;28;20021;-38
